LSZCLIME

Guest
Details From LSZC - Buochs
To LIME - Bergamo Orio Al Serio
Flight Number -
Tags generated
Created
Modified
Stats Distance 95 nm / 176 km
Max Altitude 3,900 ft / 1,189 m
Waypoints 3
Social Downloads 1
Likes 0
Share VATSIM

Download

Looking for another format? Having issues loading an existing format? Contact us
Advertisement - Login to hide

Notes

Basic altitude profile: - Ascent Rate: 2500ft/min - Ascent Speed: 250kts - Cruise Altitude: 35000ft - Cruise Speed: 420kts - Descent Rate: 1500ft/min - Descent Speed: 250kts Options: - Use NATs: no - Use PACOTS: no - Use low airways: yes - Use high airways: no

Route

LSZC MALUS LIME

ID Type Via Altitude Latitude Longitude Leg Dist Tot Dist Heading (true) Name
O LSZC APT - 0 ft / 0 m 46.97319˚ 8.39736˚ - 0 nm - Buochs
MALUS FIX - 3,900 ft / 1,189 m 46.82833˚ 8.56250˚ 11 nm 11 nm 142° / 142° -
O LIME APT - 0 ft / 0 m 45.67200˚ 9.70689˚ 84 nm 95 nm 145° / 146° Bergamo Orio Al Serio

Altitude Profile

Advertisement - Login to hide

LSZC

Details ICAO LSZC (BXO)
Name Buochs
Region Switzerland
Timezone Europe/Zurich (UTC+1.0)
Stats Elevation 1,475 ft / 450 m (AMSL)
Location 46.973188° 8.397360°
Runways 2
Magnetic Variation 2.305° E

METAR

LSZC 110220Z AUTO 24005KT 220V280 6000 SCT120 BKN140 02/01 Q0988

Decode

TAF

Not found

Departure Runways

ID Width Length Bearing (true) Bearing (mag) Surface Threshold Offset Overrun Length
07L 131 ft / 40 m 6,570 ft / 2,002 m 64.09° 61.78° Asphalt 0 ft / 0 m 650 ft / 198 m
07R 131 ft / 40 m 4,827 ft / 1,471 m 64.00° 61.69° Asphalt 0 ft / 0 m 1,161 ft / 354 m
25L 131 ft / 40 m 4,827 ft / 1,471 m 244.02° 241.71° Asphalt 0 ft / 0 m 1,161 ft / 354 m
25R 131 ft / 40 m 6,570 ft / 2,002 m 244.11° 241.80° Asphalt 0 ft / 0 m 650 ft / 198 m

LIME

Details ICAO LIME (BGY)
Name Bergamo Orio Al Serio
Region Italy
Timezone Europe/Rome (UTC+1.0)
Stats Elevation 779 ft / 237 m (AMSL)
Location 45.672004° 9.706892°
Runways 2
Magnetic Variation 2.602° E

METAR

LIME 110220Z VRB02KT 2000 -RA BR BKN002 BKN030 M00/M00 Q1002 28590093 NOSIG

Decode

TAF

TAF LIME 102300Z 1100/1124 VRB05KT 1500 SN BKN010 BKN040 BECMG 1110/1112 5000 RA

Decode

Destination Runways

ID Width Length Bearing (true) Bearing (mag) Surface Threshold Offset Overrun Length
10 148 ft / 45 m 9,897 ft / 3,017 m 104.89° 102.29° Asphalt 312 ft / 95 m 0 ft / 0 m
12 59 ft / 18 m 2,665 ft / 812 m 121.47° 118.87° Asphalt 197 ft / 60 m 0 ft / 0 m
28 148 ft / 45 m 9,897 ft / 3,017 m 284.91° 282.31° Asphalt 712 ft / 217 m 0 ft / 0 m
30 59 ft / 18 m 2,665 ft / 812 m 301.48° 298.88° Asphalt 312 ft / 95 m 0 ft / 0 m

Approach Navaids

Runway Type Ident Frequency Range Bearing (true) Bearing (mag) Slope Elevation
28 Localiser BRM 108.70 MHz 18 nm / 33 km 285.08° 282.48° - 779 ft / 237 m (AMSL)
28 Glidescope BRM 108.70 MHz 10 nm / 19 km 284.90° 282.30° 3.00° 779 ft / 237 m (AMSL)
28 DME BRM 108.70 MHz 18 nm / 33 km - - - 779 ft / 237 m (AMSL)

Popular Alternatives